Time;durP1;ratioP1;P1;durP2;ratioP2;P2;SDS_P1;SDS_P2;PMS_P1;PMS_P2;Temp;Humidity;BMP_temperature;BMP_pressure;BME280_temperature;BME280_humidity;BME280_pressure;Samples;Min_cycle;Max_cycle;Signal;HPM_P1;HPM_P2
2021/01/02 00:01:44;;;;;;;39.70;23.48;;;;;;;;;;5056635;28;20437;-86
2021/01/02 00:04:23;;;;;;;36.65;23.63;;;;;;;;;;5052490;28;20045;-84
2021/01/02 00:07:08;;;;;;;38.85;23.05;;;;;;;;;;5052980;28;20037;-85
2021/01/02 00:09:34;;;;;;;41.75;23.10;;;;;;;;;;5056781;28;20048;-84
2021/01/02 00:12:27;;;;;;;37.00;22.33;;;;;;;;;;5056798;28;20070;-85
2021/01/02 00:14:59;;;;;;;36.55;22.98;;;;;;;;;;5053377;28;20049;-84
2021/01/02 00:17:51;;;;;;;37.03;22.35;;;;;;;;;;5053437;28;20474;-86
2021/01/02 00:20:55;;;;;;;42.03;21.90;;;;;;;;;;5055992;28;20049;-85
2021/01/02 00:23:43;;;;;;;38.17;22.00;;;;;;;;;;5020700;28;20103;-84
2021/01/02 00:26:15;;;;;;;36.75;22.33;;;;;;;;;;5056549;28;20059;-85
2021/01/02 00:28:44;;;;;;;36.00;22.38;;;;;;;;;;5061428;28;20091;-85
2021/01/02 00:31:36;;;;;;;44.88;24.95;;;;;;;;;;5054646;28;20075;-85
2021/01/02 00:34:22;;;;;;;42.90;24.92;;;;;;;;;;5055740;28;20057;-85
2021/01/02 00:36:49;;;;;;;;;;;;;;;;;;5057125;28;20043;-85
2021/01/02 00:39:27;;;;;;;37.78;22.67;;;;;;;;;;5056931;28;19925;-85
2021/01/02 00:41:54;;;;;;;40.25;23.08;;;;;;;;;;5055104;28;20041;-84
2021/01/02 00:44:22;;;;;;;37.97;22.60;;;;;;;;;;5057745;28;20052;-85
2021/01/02 00:46:48;;;;;;;33.00;21.65;;;;;;;;;;5050661;28;20049;-85
2021/01/02 00:49:16;;;;;;;31.20;19.27;;;;;;;;;;5046892;28;20390;-85
2021/01/02 00:51:56;;;;;;;39.17;22.60;;;;;;;;;;5057180;28;20045;-86
2021/01/02 00:54:31;;;;;;;40.70;23.02;;;;;;;;;;5056548;28;20060;-84
2021/01/02 00:57:02;;;;;;;36.45;22.90;;;;;;;;;;5052346;28;20084;-85
2021/01/02 00:59:55;;;;;;;32.47;21.08;;;;;;;;;;5051948;28;20045;-84
2021/01/02 01:02:42;;;;;;;34.08;21.58;;;;;;;;;;5053688;28;20060;-85
2021/01/02 01:05:09;;;;;;;35.45;21.20;;;;;;;;;;5052915;28;20047;-85
2021/01/02 01:07:36;;;;;;;33.30;19.75;;;;;;;;;;5055181;28;20037;-85
2021/01/02 01:10:07;;;;;;;32.60;19.85;;;;;;;;;;5056611;28;20052;-85
2021/01/02 01:12:39;;;;;;;36.15;21.00;;;;;;;;;;5072111;28;20386;-84
2021/01/02 01:15:06;;;;;;;32.83;20.45;;;;;;;;;;5072065;28;20049;-85
2021/01/02 01:17:33;;;;;;;39.33;22.67;;;;;;;;;;5057999;28;20048;-86
2021/01/02 01:20:03;;;;;;;31.80;19.17;;;;;;;;;;5058566;28;20143;-86
2021/01/02 01:22:31;;;;;;;33.58;20.98;;;;;;;;;;5055232;28;20049;-85
2021/01/02 01:25:03;;;;;;;36.03;20.55;;;;;;;;;;5055983;28;20036;-86
2021/01/02 01:27:35;;;;;;;34.67;21.23;;;;;;;;;;5074752;28;20056;-85
2021/01/02 01:30:02;;;;;;;34.53;19.50;;;;;;;;;;5067010;28;20067;-85
2021/01/02 01:32:29;;;;;;;34.75;21.52;;;;;;;;;;5055346;28;20045;-85
2021/01/02 01:34:56;;;;;;;39.35;21.60;;;;;;;;;;5066272;28;20056;-86
2021/01/02 01:37:27;;;;;;;34.22;21.23;;;;;;;;;;5060481;28;20503;-85
2021/01/02 01:39:54;;;;;;;37.60;21.95;;;;;;;;;;5054964;28;20465;-85
2021/01/02 01:42:24;;;;;;;33.47;20.83;;;;;;;;;;5066752;28;20508;-86
2021/01/02 01:44:55;;;;;;;35.13;21.70;;;;;;;;;;5053842;28;20477;-86
2021/01/02 01:47:35;;;;;;;36.17;22.13;;;;;;;;;;5055179;28;20045;-86
2021/01/02 01:50:24;;;;;;;31.52;20.85;;;;;;;;;;5066798;28;20401;-86
2021/01/02 01:53:39;;;;;;;33.47;21.02;;;;;;;;;;5061988;28;20132;-85
2021/01/02 01:56:15;;;;;;;36.97;21.88;;;;;;;;;;5055354;28;20049;-86
2021/01/02 01:58:47;;;;;;;37.85;21.80;;;;;;;;;;5059806;28;20056;-85
2021/01/02 02:01:16;;;;;;;35.67;20.98;;;;;;;;;;5057799;28;20496;-86
2021/01/02 02:03:48;;;;;;;35.25;20.90;;;;;;;;;;5057864;28;20051;-84
2021/01/02 02:06:24;;;;;;;35.45;20.90;;;;;;;;;;5057574;28;20056;-85
2021/01/02 02:08:57;;;;;;;36.13;22.20;;;;;;;;;;5057805;28;20072;-85
2021/01/02 02:11:47;;;;;;;36.78;21.77;;;;;;;;;;5057968;28;20091;-85
2021/01/02 02:14:14;;;;;;;36.08;19.50;;;;;;;;;;5055602;28;20049;-86
2021/01/02 02:16:42;;;;;;;40.60;21.95;;;;;;;;;;5051960;28;20406;-85
2021/01/02 02:19:20;;;;;;;34.70;20.05;;;;;;;;;;5058333;28;20099;-86
2021/01/02 02:21:50;;;;;;;34.03;20.45;;;;;;;;;;5058159;28;20482;-85
2021/01/02 02:24:18;;;;;;;38.22;20.83;;;;;;;;;;5057617;28;20064;-85
2021/01/02 02:26:45;;;;;;;37.38;20.75;;;;;;;;;;5058119;28;20045;-85
2021/01/02 02:29:24;;;;;;;40.67;22.15;;;;;;;;;;5038251;28;20056;-86
2021/01/02 02:31:50;;;;;;;37.05;20.77;;;;;;;;;;5057699;28;20045;-85
2021/01/02 02:34:18;;;;;;;36.08;21.17;;;;;;;;;;5057578;28;20493;-85
2021/01/02 02:36:44;;;;;;;32.55;20.52;;;;;;;;;;5057805;28;20053;-85
2021/01/02 02:39:11;;;;;;;33.53;18.55;;;;;;;;;;5055206;28;20452;-86
2021/01/02 02:41:40;;;;;;;35.17;20.70;;;;;;;;;;5057813;28;20044;-85
2021/01/02 02:44:10;;;;;;;36.38;19.60;;;;;;;;;;5058019;28;20049;-86
2021/01/02 02:46:40;;;;;;;34.88;20.60;;;;;;;;;;5058232;28;20434;-86
2021/01/02 02:49:08;;;;;;;32.05;19.08;;;;;;;;;;5058514;28;20041;-85
2021/01/02 02:51:40;;;;;;;34.08;19.10;;;;;;;;;;5058092;28;20382;-85
2021/01/02 02:54:06;;;;;;;33.25;18.98;;;;;;;;;;5058111;28;20049;-85
2021/01/02 02:56:32;;;;;;;37.15;19.90;;;;;;;;;;5057810;28;20056;-86
2021/01/02 02:58:58;;;;;;;32.08;18.45;;;;;;;;;;5057283;28;20049;-85
2021/01/02 03:01:26;;;;;;;29.63;17.63;;;;;;;;;;5058304;28;20079;-85
2021/01/02 03:03:54;;;;;;;32.25;18.55;;;;;;;;;;5057242;28;20049;-85
2021/01/02 03:06:21;;;;;;;32.13;18.55;;;;;;;;;;5057505;28;20106;-86
2021/01/02 03:08:51;;;;;;;27.90;18.10;;;;;;;;;;5056474;28;20055;-85
2021/01/02 03:11:20;;;;;;;31.90;18.40;;;;;;;;;;5057437;28;20049;-86
2021/01/02 03:13:46;;;;;;;32.67;18.48;;;;;;;;;;5057633;28;20052;-85
2021/01/02 03:16:12;;;;;;;38.10;21.95;;;;;;;;;;5057173;28;20523;-85
2021/01/02 03:18:39;;;;;;;35.97;19.83;;;;;;;;;;5057342;28;20045;-85
2021/01/02 03:21:05;;;;;;;30.92;18.83;;;;;;;;;;5057028;28;20059;-85
2021/01/02 03:23:41;;;;;;;33.42;18.65;;;;;;;;;;5057266;28;20505;-86
2021/01/02 03:26:07;;;;;;;29.70;18.27;;;;;;;;;;5057311;28;20049;-86
2021/01/02 03:28:32;;;;;;;31.92;19.10;;;;;;;;;;5056700;28;20049;-86
2021/01/02 03:30:58;;;;;;;31.98;18.50;;;;;;;;;;5057307;28;20457;-86
2021/01/02 03:33:25;;;;;;;36.10;19.38;;;;;;;;;;5056928;28;20072;-85
2021/01/02 03:35:58;;;;;;;31.92;19.50;;;;;;;;;;5057328;28;20053;-85
2021/01/02 03:38:24;;;;;;;28.33;15.77;;;;;;;;;;5056966;28;20091;-85
2021/01/02 03:40:49;;;;;;;33.67;18.63;;;;;;;;;;5056823;28;20053;-86
2021/01/02 03:43:15;;;;;;;28.80;17.10;;;;;;;;;;5056698;28;20048;-85
2021/01/02 03:45:41;;;;;;;35.13;18.85;;;;;;;;;;5056503;28;20052;-86
2021/01/02 03:48:07;;;;;;;34.35;19.73;;;;;;;;;;5056171;28;20056;-86
2021/01/02 03:50:33;;;;;;;33.53;18.90;;;;;;;;;;5056946;28;20045;-86
2021/01/02 03:53:00;;;;;;;37.08;18.73;;;;;;;;;;5056932;28;20095;-86
2021/01/02 03:55:26;;;;;;;33.97;18.98;;;;;;;;;;5056647;28;20045;-86
2021/01/02 03:57:52;;;;;;;33.17;19.52;;;;;;;;;;5057090;28;20045;-85
2021/01/02 04:00:19;;;;;;;33.72;18.73;;;;;;;;;;5056575;28;20072;-86
2021/01/02 04:02:45;;;;;;;30.88;18.48;;;;;;;;;;5056601;28;20091;-85
2021/01/02 04:05:12;;;;;;;32.47;19.15;;;;;;;;;;5056096;28;20049;-86
2021/01/02 04:07:38;;;;;;;33.85;19.13;;;;;;;;;;5055943;28;20049;-85
2021/01/02 04:10:06;;;;;;;29.45;18.17;;;;;;;;;;5056343;28;20080;-85
2021/01/02 04:12:32;;;;;;;31.48;18.33;;;;;;;;;;5056847;28;20095;-86
2021/01/02 04:14:58;;;;;;;33.00;19.13;;;;;;;;;;5056116;28;20143;-85
2021/01/02 04:17:24;;;;;;;38.55;20.30;;;;;;;;;;5056081;28;20049;-86
2021/01/02 04:19:50;;;;;;;30.63;18.15;;;;;;;;;;5056303;28;20045;-85
2021/01/02 04:22:16;;;;;;;36.58;19.98;;;;;;;;;;5055952;28;20088;-86
2021/01/02 04:24:42;;;;;;;33.75;19.17;;;;;;;;;;5058103;28;20045;-86
2021/01/02 04:27:09;;;;;;;34.70;19.55;;;;;;;;;;5058880;28;20053;-86
2021/01/02 04:29:35;;;;;;;29.60;17.83;;;;;;;;;;5055958;28;20041;-86
2021/01/02 04:32:01;;;;;;;30.42;17.45;;;;;;;;;;5056749;28;20451;-86
2021/01/02 04:34:27;;;;;;;30.60;18.90;;;;;;;;;;5055830;28;20049;-86
2021/01/02 04:36:53;;;;;;;32.53;17.90;;;;;;;;;;5056093;28;20049;-85
2021/01/02 04:39:20;;;;;;;27.45;17.05;;;;;;;;;;5056525;28;20464;-86
2021/01/02 04:41:46;;;;;;;32.28;18.17;;;;;;;;;;5056223;28;20144;-86
2021/01/02 04:44:14;;;;;;;27.00;16.75;;;;;;;;;;5055956;28;20055;-86
2021/01/02 04:46:41;;;;;;;26.60;16.35;;;;;;;;;;5055788;28;20045;-86
2021/01/02 04:49:07;;;;;;;28.33;16.77;;;;;;;;;;5056249;28;20409;-86
2021/01/02 04:51:33;;;;;;;27.85;16.15;;;;;;;;;;5056648;28;20098;-86
2021/01/02 04:54:00;;;;;;;29.40;17.30;;;;;;;;;;5056637;28;20049;-85
2021/01/02 04:56:27;;;;;;;30.38;17.92;;;;;;;;;;5056416;28;20048;-86
2021/01/02 04:58:53;;;;;;;28.08;17.67;;;;;;;;;;5056634;28;20052;-86
2021/01/02 05:01:20;;;;;;;28.23;16.35;;;;;;;;;;5055831;28;20479;-86
2021/01/02 05:03:47;;;;;;;31.65;18.83;;;;;;;;;;5055777;28;20045;-87
2021/01/02 05:06:20;;;;;;;28.88;17.30;;;;;;;;;;5055548;28;20091;-86
2021/01/02 05:08:47;;;;;;;27.73;17.45;;;;;;;;;;5055528;28;20057;-86
2021/01/02 05:11:13;;;;;;;28.00;18.08;;;;;;;;;;5054982;28;20048;-86
2021/01/02 05:13:39;;;;;;;31.95;18.90;;;;;;;;;;5055122;28;20456;-86
2021/01/02 05:16:17;;;;;;;32.67;18.88;;;;;;;;;;5054942;28;20103;-86
2021/01/02 05:18:57;;;;;;;31.13;18.33;;;;;;;;;;5054795;28;20040;-86
2021/01/02 05:21:23;;;;;;;32.38;17.70;;;;;;;;;;5055462;28;20444;-86
2021/01/02 05:24:08;;;;;;;31.50;17.95;;;;;;;;;;5054920;28;20528;-86
2021/01/02 05:26:35;;;;;;;32.63;18.10;;;;;;;;;;5055183;28;20045;-86
2021/01/02 05:29:11;;;;;;;31.45;18.55;;;;;;;;;;5054737;28;20258;-86
2021/01/02 05:31:38;;;;;;;31.80;18.70;;;;;;;;;;5055428;28;20456;-86
2021/01/02 05:34:06;;;;;;;31.65;18.00;;;;;;;;;;5059144;28;20052;-86
2021/01/02 05:36:32;;;;;;;34.65;18.25;;;;;;;;;;5058672;28;20061;-86
2021/01/02 05:38:59;;;;;;;32.60;19.02;;;;;;;;;;5058899;28;20045;-86
2021/01/02 05:41:25;;;;;;;36.47;19.85;;;;;;;;;;5059014;28;20041;-86
2021/01/02 05:43:51;;;;;;;31.55;19.40;;;;;;;;;;5058570;28;20072;-86
2021/01/02 05:46:19;;;;;;;32.95;19.35;;;;;;;;;;5058467;28;20045;-87
2021/01/02 05:48:45;;;;;;;31.48;18.85;;;;;;;;;;5058813;28;20060;-86
2021/01/02 05:51:12;;;;;;;31.80;19.30;;;;;;;;;;5059176;28;20045;-86
2021/01/02 05:53:39;;;;;;;34.95;20.08;;;;;;;;;;5058064;28;20053;-86
2021/01/02 05:56:07;;;;;;;32.70;19.40;;;;;;;;;;5058997;28;20044;-86
2021/01/02 05:58:35;;;;;;;29.13;18.88;;;;;;;;;;5058930;28;20056;-86
2021/01/02 06:01:12;;;;;;;29.73;19.17;;;;;;;;;;5058543;28;20095;-87
2021/01/02 06:03:39;;;;;;;40.92;21.25;;;;;;;;;;5059961;28;20095;-86
2021/01/02 06:06:07;;;;;;;33.33;19.27;;;;;;;;;;5060387;28;20049;-86
2021/01/02 06:08:39;;;;;;;31.33;18.42;;;;;;;;;;5059814;28;20106;-86
2021/01/02 06:11:07;;;;;;;29.73;18.95;;;;;;;;;;5059862;28;20527;-86
2021/01/02 06:13:34;;;;;;;29.95;20.35;;;;;;;;;;5060117;28;20049;-85
2021/01/02 06:16:02;;;;;;;30.42;18.67;;;;;;;;;;5059562;28;20123;-86
2021/01/02 06:18:29;;;;;;;32.85;18.35;;;;;;;;;;5060043;28;20044;-86
2021/01/02 06:20:56;;;;;;;32.65;18.33;;;;;;;;;;5060164;28;20052;-86
2021/01/02 06:23:23;;;;;;;28.48;18.30;;;;;;;;;;5059299;28;20041;-86
2021/01/02 06:25:52;;;;;;;34.60;18.90;;;;;;;;;;5058471;28;20052;-86
2021/01/02 06:28:18;;;;;;;34.05;20.50;;;;;;;;;;5058370;28;20045;-86
2021/01/02 06:30:44;;;;;;;30.13;18.40;;;;;;;;;;5058675;28;20056;-86
2021/01/02 06:33:14;;;;;;;32.20;19.13;;;;;;;;;;5058394;28;20053;-86
2021/01/02 06:35:40;;;;;;;29.27;17.48;;;;;;;;;;5058382;28;20061;-86
2021/01/02 06:38:10;;;;;;;32.40;19.80;;;;;;;;;;5057963;28;20476;-87
2021/01/02 06:40:37;;;;;;;27.98;18.10;;;;;;;;;;5057787;28;20056;-87
2021/01/02 06:43:06;;;;;;;28.33;17.50;;;;;;;;;;5058466;28;20049;-86
2021/01/02 06:46:02;;;;;;;31.45;18.73;;;;;;;;;;5058744;28;20048;-86
2021/01/02 06:48:33;;;;;;;30.52;18.08;;;;;;;;;;5059337;28;20045;-87
2021/01/02 06:51:01;;;;;;;31.58;16.98;;;;;;;;;;5058839;28;20374;-86
2021/01/02 06:53:28;;;;;;;29.23;18.23;;;;;;;;;;5058803;28;20053;-86
2021/01/02 06:55:59;;;;;;;32.65;19.45;;;;;;;;;;5060101;28;20053;-87
2021/01/02 06:58:34;;;;;;;30.15;18.48;;;;;;;;;;5059091;28;20041;-86
2021/01/02 07:01:00;;;;;;;31.45;18.58;;;;;;;;;;5058809;28;20041;-86
2021/01/02 07:03:46;;;;;;;29.02;17.73;;;;;;;;;;5058834;28;20103;-86
2021/01/02 07:06:25;;;;;;;31.35;18.38;;;;;;;;;;5057806;28;20057;-86
2021/01/02 07:08:52;;;;;;;30.40;19.30;;;;;;;;;;5056754;28;20071;-87
2021/01/02 07:11:27;;;;;;;28.52;17.55;;;;;;;;;;5057069;28;20045;-86
2021/01/02 07:14:25;;;;;;;31.60;19.20;;;;;;;;;;5057532;28;20437;-86
2021/01/02 07:16:53;;;;;;;27.80;17.63;;;;;;;;;;5058192;28;20616;-86
2021/01/02 07:19:46;;;;;;;33.50;19.10;;;;;;;;;;5058757;28;20127;-86
2021/01/02 07:22:21;;;;;;;27.35;17.60;;;;;;;;;;5057571;28;20099;-87
2021/01/02 07:24:49;;;;;;;29.05;17.35;;;;;;;;;;5057190;28;20049;-87
2021/01/02 07:27:17;;;;;;;27.52;17.83;;;;;;;;;;5056765;28;20398;-86
2021/01/02 07:29:45;;;;;;;30.17;17.20;;;;;;;;;;5057335;28;20049;-86
2021/01/02 07:32:13;;;;;;;31.42;18.70;;;;;;;;;;5057909;28;20079;-86
2021/01/02 07:34:40;;;;;;;27.98;17.60;;;;;;;;;;5057913;28;20049;-86
2021/01/02 07:37:09;;;;;;;29.35;17.90;;;;;;;;;;5057989;28;20063;-86
2021/01/02 07:39:35;;;;;;;26.90;16.70;;;;;;;;;;5057814;28;20049;-86
2021/01/02 07:42:04;;;;;;;28.52;17.95;;;;;;;;;;5057457;28;20049;-85
2021/01/02 07:44:30;;;;;;;28.05;17.63;;;;;;;;;;5057492;28;20052;-85
2021/01/02 07:46:57;;;;;;;27.63;16.52;;;;;;;;;;5057115;28;20063;-85
2021/01/02 07:49:23;;;;;;;32.15;17.98;;;;;;;;;;5057201;28;20098;-86
2021/01/02 07:51:50;;;;;;;31.15;17.95;;;;;;;;;;5051557;28;20048;-85
2021/01/02 07:54:30;;;;;;;29.38;16.08;;;;;;;;;;5057557;28;20053;-86
2021/01/02 07:56:56;;;;;;;28.73;16.92;;;;;;;;;;5058282;28;20045;-85
2021/01/02 07:59:27;;;;;;;31.13;18.13;;;;;;;;;;5057918;28;20045;-85
2021/01/02 08:01:55;;;;;;;31.25;17.58;;;;;;;;;;5057781;28;20454;-86
2021/01/02 08:04:22;;;;;;;27.30;16.85;;;;;;;;;;5057777;28;20045;-85
2021/01/02 08:06:50;;;;;;;29.10;17.10;;;;;;;;;;5057734;28;20052;-85
2021/01/02 08:09:16;;;;;;;29.42;18.10;;;;;;;;;;5058341;28;20107;-85
2021/01/02 08:12:05;;;;;;;28.35;18.65;;;;;;;;;;5057716;28;20057;-86
2021/01/02 08:14:32;;;;;;;27.67;16.92;;;;;;;;;;5049485;28;20052;-85
2021/01/02 08:17:03;;;;;;;29.55;17.00;;;;;;;;;;5057201;28;20462;-86
2021/01/02 08:19:31;;;;;;;31.25;18.30;;;;;;;;;;5056659;28;20053;-86
2021/01/02 08:21:59;;;;;;;28.17;16.77;;;;;;;;;;5056753;28;20045;-87
2021/01/02 08:24:25;;;;;;;29.90;16.65;;;;;;;;;;5056622;28;20045;-86
2021/01/02 08:26:51;;;;;;;26.77;18.42;;;;;;;;;;5068335;28;20337;-86
2021/01/02 08:29:18;;;;;;;29.30;17.88;;;;;;;;;;5066002;28;20503;-86
2021/01/02 08:31:48;;;;;;;29.02;18.52;;;;;;;;;;5071503;28;20049;-86
2021/01/02 08:34:18;;;;;;;28.58;18.05;;;;;;;;;;5057330;28;20057;-86
2021/01/02 08:36:44;;;;;;;27.85;17.58;;;;;;;;;;5058390;28;20123;-86
2021/01/02 08:39:10;;;;;;;28.38;15.52;;;;;;;;;;5066543;28;20059;-86
2021/01/02 08:41:37;;;;;;;28.23;17.05;;;;;;;;;;5060793;28;20056;-85
2021/01/02 08:44:04;;;;;;;26.67;16.77;;;;;;;;;;5070813;28;20493;-85
2021/01/02 08:46:30;;;;;;;30.67;19.00;;;;;;;;;;5068296;28;20044;-86
2021/01/02 08:48:56;;;;;;;28.63;16.70;;;;;;;;;;5071224;28;20044;-85
2021/01/02 08:51:23;;;;;;;31.13;17.40;;;;;;;;;;5064596;28;20186;-86
2021/01/02 08:53:50;;;;;;;29.40;17.52;;;;;;;;;;5074552;28;20045;-86
2021/01/02 08:56:22;;;;;;;31.80;18.83;;;;;;;;;;5075575;28;20045;-85
2021/01/02 08:58:48;;;;;;;33.72;18.33;;;;;;;;;;5063490;28;20044;-85
2021/01/02 09:01:14;;;;;;;30.38;16.90;;;;;;;;;;5073948;28;20485;-86
2021/01/02 09:03:40;;;;;;;29.98;18.67;;;;;;;;;;5067709;28;20044;-86
2021/01/02 09:06:17;;;;;;;26.92;17.35;;;;;;;;;;5064947;28;20045;-86
2021/01/02 09:08:43;;;;;;;25.98;16.27;;;;;;;;;;5066471;28;20075;-86
2021/01/02 09:11:10;;;;;;;29.02;17.92;;;;;;;;;;5066366;28;20044;-86
2021/01/02 09:13:36;;;;;;;25.45;17.02;;;;;;;;;;5070019;28;20045;-86
2021/01/02 09:16:03;;;;;;;31.20;18.42;;;;;;;;;;5066399;28;20053;-84
2021/01/02 09:18:43;;;;;;;36.60;18.85;;;;;;;;;;5068910;28;20049;-86
2021/01/02 09:21:17;;;;;;;29.65;18.23;;;;;;;;;;5057685;28;20064;-85
2021/01/02 09:23:44;;;;;;;34.40;22.17;;;;;;;;;;5072401;28;20068;-85
2021/01/02 09:26:19;;;;;;;33.47;19.33;;;;;;;;;;5063496;28;20477;-85
2021/01/02 09:28:45;;;;;;;25.75;16.77;;;;;;;;;;5062625;28;20514;-86
2021/01/02 09:31:11;;;;;;;29.60;18.15;;;;;;;;;;5070259;28;20052;-86
2021/01/02 09:33:37;;;;;;;31.00;20.02;;;;;;;;;;5060000;28;20413;-85
2021/01/02 09:36:04;;;;;;;29.95;18.58;;;;;;;;;;5059836;28;20094;-85
2021/01/02 09:38:30;;;;;;;29.20;18.65;;;;;;;;;;5055664;28;20045;-85
2021/01/02 09:40:57;;;;;;;28.10;17.20;;;;;;;;;;5063896;28;20041;-85
2021/01/02 09:43:23;;;;;;;30.45;18.52;;;;;;;;;;5058535;28;20056;-85
2021/01/02 09:45:50;;;;;;;32.08;18.83;;;;;;;;;;5060312;28;20072;-85
2021/01/02 09:48:17;;;;;;;25.10;16.60;;;;;;;;;;5065054;28;20041;-85
2021/01/02 09:50:43;;;;;;;25.67;16.48;;;;;;;;;;5061348;28;20124;-85
2021/01/02 09:53:10;;;;;;;26.00;16.13;;;;;;;;;;5061587;28;20037;-86
2021/01/02 09:55:36;;;;;;;26.67;16.67;;;;;;;;;;5065502;28;20048;-86
2021/01/02 09:58:03;;;;;;;29.98;18.17;;;;;;;;;;5069473;28;20432;-85
2021/01/02 10:00:30;;;;;;;23.88;15.48;;;;;;;;;;5059226;28;20477;-85
2021/01/02 10:02:56;;;;;;;25.02;14.65;;;;;;;;;;5057469;28;20071;-85
2021/01/02 10:05:23;;;;;;;25.90;15.93;;;;;;;;;;5057140;28;20044;-85
2021/01/02 10:07:50;;;;;;;25.35;16.38;;;;;;;;;;5058931;28;20044;-85
2021/01/02 10:10:17;;;;;;;24.23;15.30;;;;;;;;;;5062503;28;20044;-86
2021/01/02 10:12:43;;;;;;;22.00;14.77;;;;;;;;;;5066918;28;20099;-85
2021/01/02 10:15:10;;;;;;;23.95;14.85;;;;;;;;;;5060324;28;20071;-86
2021/01/02 10:17:37;;;;;;;26.42;15.27;;;;;;;;;;5072612;28;20056;-85
2021/01/02 10:20:05;;;;;;;21.55;15.05;;;;;;;;;;5068254;28;20500;-85
2021/01/02 10:22:31;;;;;;;27.15;17.85;;;;;;;;;;5065757;28;20049;-85
2021/01/02 10:24:57;;;;;;;26.58;16.55;;;;;;;;;;5067880;28;20060;-85
2021/01/02 10:27:24;;;;;;;39.95;23.15;;;;;;;;;;5068114;28;20090;-85
2021/01/02 10:29:52;;;;;;;41.58;24.38;;;;;;;;;;5068774;28;20117;-85
2021/01/02 10:32:20;;;;;;;27.50;17.23;;;;;;;;;;5068691;28;20054;-86
2021/01/02 10:34:48;;;;;;;24.33;15.18;;;;;;;;;;5067030;28;20056;-86
2021/01/02 10:37:14;;;;;;;29.67;19.92;;;;;;;;;;5067601;28;20044;-86
2021/01/02 10:39:41;;;;;;;26.73;17.13;;;;;;;;;;5065598;28;20082;-86
2021/01/02 10:42:08;;;;;;;24.00;15.55;;;;;;;;;;5069291;28;20045;-86
2021/01/02 10:44:34;;;;;;;24.73;15.68;;;;;;;;;;5066364;28;20099;-85
2021/01/02 10:47:00;;;;;;;26.17;16.33;;;;;;;;;;5067152;28;20455;-86
2021/01/02 10:49:27;;;;;;;24.17;15.70;;;;;;;;;;5070052;28;20041;-85
2021/01/02 10:51:54;;;;;;;22.92;14.43;;;;;;;;;;5068633;28;20044;-85
2021/01/02 10:54:20;;;;;;;24.23;15.63;;;;;;;;;;5068516;28;20069;-85
2021/01/02 10:56:47;;;;;;;24.13;15.52;;;;;;;;;;5068886;28;20040;-85
2021/01/02 10:59:14;;;;;;;23.60;15.25;;;;;;;;;;5071119;28;20492;-85
2021/01/02 11:01:41;;;;;;;25.45;16.38;;;;;;;;;;5068037;28;20481;-86
2021/01/02 11:04:08;;;;;;;27.42;18.90;;;;;;;;;;5067842;28;20040;-85
2021/01/02 11:06:35;;;;;;;29.10;17.13;;;;;;;;;;5065818;28;20090;-85
2021/01/02 11:09:01;;;;;;;25.92;15.98;;;;;;;;;;5067414;28;20068;-86
2021/01/02 11:11:28;;;;;;;30.52;20.73;;;;;;;;;;5067219;28;20059;-85
2021/01/02 11:13:54;;;;;;;32.38;20.33;;;;;;;;;;5066183;28;20497;-85
2021/01/02 11:16:29;;;;;;;28.75;18.52;;;;;;;;;;5069122;28;20071;-85
2021/01/02 11:18:55;;;;;;;29.17;19.35;;;;;;;;;;5064864;28;20041;-86
2021/01/02 11:21:21;;;;;;;26.02;16.95;;;;;;;;;;5068257;28;20047;-85
2021/01/02 11:23:48;;;;;;;31.70;19.63;;;;;;;;;;5064975;28;20052;-86
2021/01/02 11:26:14;;;;;;;26.92;18.05;;;;;;;;;;5065162;28;20057;-85
2021/01/02 11:28:41;;;;;;;31.15;20.08;;;;;;;;;;5071542;28;20071;-85
2021/01/02 11:31:07;;;;;;;28.88;18.00;;;;;;;;;;5073458;28;20051;-85
2021/01/02 11:33:33;;;;;;;28.33;17.63;;;;;;;;;;5056168;28;20112;-85
2021/01/02 11:35:59;;;;;;;29.83;18.52;;;;;;;;;;5057229;28;20052;-87
2021/01/02 11:38:25;;;;;;;28.05;17.75;;;;;;;;;;5057024;28;20126;-88
2021/01/02 11:40:52;;;;;;;28.27;17.80;;;;;;;;;;5058083;28;20060;-86
2021/01/02 11:43:18;;;;;;;28.85;18.02;;;;;;;;;;5060800;28;20056;-86
2021/01/02 11:45:45;;;;;;;30.05;17.88;;;;;;;;;;5057684;28;20105;-85
2021/01/02 11:48:12;;;;;;;27.38;19.40;;;;;;;;;;5076895;28;20040;-85
2021/01/02 11:50:38;;;;;;;29.95;17.25;;;;;;;;;;5078254;28;20059;-85
2021/01/02 11:53:04;;;;;;;30.45;17.98;;;;;;;;;;5076831;28;20053;-85
2021/01/02 11:55:30;;;;;;;27.83;18.38;;;;;;;;;;5077409;28;20058;-85
2021/01/02 11:57:57;;;;;;;32.03;18.13;;;;;;;;;;5077079;28;20044;-86
2021/01/02 12:00:24;;;;;;;32.08;19.83;;;;;;;;;;5077190;28;20048;-85
2021/01/02 12:02:50;;;;;;;30.23;18.60;;;;;;;;;;5069590;28;20048;-86
2021/01/02 12:05:16;;;;;;;32.50;21.60;;;;;;;;;;5055172;28;20394;-85
2021/01/02 12:07:42;;;;;;;33.60;20.42;;;;;;;;;;5056006;28;20467;-85
2021/01/02 12:10:10;;;;;;;32.60;19.02;;;;;;;;;;5058251;28;20409;-85
2021/01/02 12:12:36;;;;;;;34.40;20.10;;;;;;;;;;5058105;28;20075;-86
2021/01/02 12:15:06;;;;;;;34.38;19.98;;;;;;;;;;5057356;28;20088;-86
2021/01/02 12:17:33;;;;;;;36.25;19.77;;;;;;;;;;5068979;28;20049;-86
2021/01/02 12:20:00;;;;;;;33.30;19.33;;;;;;;;;;5065135;28;20045;-86
2021/01/02 12:22:26;;;;;;;34.97;18.92;;;;;;;;;;5061318;28;20052;-86
2021/01/02 12:24:52;;;;;;;34.30;20.10;;;;;;;;;;5055377;28;20053;-86
2021/01/02 12:27:18;;;;;;;34.25;20.40;;;;;;;;;;5057430;28;20076;-86
2021/01/02 12:29:44;;;;;;;34.17;20.42;;;;;;;;;;5049233;28;20045;-85
2021/01/02 12:32:12;;;;;;;38.58;21.42;;;;;;;;;;5054089;28;20698;-86
2021/01/02 12:34:40;;;;;;;39.20;21.90;;;;;;;;;;5059211;28;20135;-85
2021/01/02 12:37:09;;;;;;;39.80;22.00;;;;;;;;;;5057123;28;20049;-85
2021/01/02 12:39:37;;;;;;;41.10;22.17;;;;;;;;;;5057114;28;20833;-86
2021/01/02 12:42:04;;;;;;;41.80;23.27;;;;;;;;;;5056639;28;20048;-86
2021/01/02 12:44:30;;;;;;;35.80;21.40;;;;;;;;;;5058197;28;20064;-86
2021/01/02 12:46:58;;;;;;;39.53;22.60;;;;;;;;;;5062376;28;20044;-86
2021/01/02 12:49:27;;;;;;;58.45;31.17;;;;;;;;;;5076979;28;20446;-85
2021/01/02 12:51:54;;;;;;;45.05;23.17;;;;;;;;;;5060783;28;20045;-85
2021/01/02 12:54:20;;;;;;;44.88;24.92;;;;;;;;;;5064145;28;20059;-86
2021/01/02 12:56:47;;;;;;;44.25;24.42;;;;;;;;;;5066302;28;20061;-86
2021/01/02 12:59:17;;;;;;;53.97;27.48;;;;;;;;;;5069134;28;20041;-86
2021/01/02 13:01:43;;;;;;;47.45;27.40;;;;;;;;;;5059399;28;20052;-86
2021/01/02 13:04:09;;;;;;;46.45;25.13;;;;;;;;;;5057076;28;20194;-86
2021/01/02 13:06:36;;;;;;;45.72;23.15;;;;;;;;;;5058111;28;20045;-87
2021/01/02 13:09:03;;;;;;;43.40;24.35;;;;;;;;;;5051546;28;20489;-86
2021/01/02 13:11:29;;;;;;;42.58;23.33;;;;;;;;;;5058739;28;20041;-86
2021/01/02 13:13:55;;;;;;;42.97;24.23;;;;;;;;;;5066816;28;20072;-85
2021/01/02 13:16:21;;;;;;;49.30;24.95;;;;;;;;;;5063986;28;20080;-85
2021/01/02 13:18:47;;;;;;;49.67;27.40;;;;;;;;;;5054264;28;20071;-85
2021/01/02 13:21:13;;;;;;;47.45;26.48;;;;;;;;;;5049836;28;20135;-86
2021/01/02 13:23:40;;;;;;;44.70;25.90;;;;;;;;;;5056361;28;20108;-86
2021/01/02 13:26:10;;;;;;;43.00;25.02;;;;;;;;;;5066007;28;20048;-87
2021/01/02 13:28:36;;;;;;;44.72;25.00;;;;;;;;;;5055330;28;20049;-85
2021/01/02 13:31:02;;;;;;;44.17;24.65;;;;;;;;;;5054774;28;20076;-86
2021/01/02 13:33:30;;;;;;;50.60;25.42;;;;;;;;;;5055301;28;20056;-86
2021/01/02 13:35:56;;;;;;;50.53;26.73;;;;;;;;;;5055056;28;20557;-86
2021/01/02 13:38:22;;;;;;;42.65;24.15;;;;;;;;;;5056095;28;20076;-86
2021/01/02 13:40:50;;;;;;;46.00;24.52;;;;;;;;;;5057126;28;20409;-86
2021/01/02 13:43:16;;;;;;;41.03;23.42;;;;;;;;;;5053195;28;20068;-85
2021/01/02 13:45:42;;;;;;;41.25;23.83;;;;;;;;;;5057239;28;20052;-86
2021/01/02 13:48:08;;;;;;;49.67;25.25;;;;;;;;;;5055763;28;20045;-86
2021/01/02 13:50:34;;;;;;;39.35;23.10;;;;;;;;;;5055967;28;20459;-86
2021/01/02 13:53:00;;;;;;;43.47;24.08;;;;;;;;;;5057106;28;20049;-86
2021/01/02 13:55:26;;;;;;;48.72;23.58;;;;;;;;;;5058002;28;20465;-86
2021/01/02 13:57:53;;;;;;;47.22;22.85;;;;;;;;;;5058776;28;20053;-86
2021/01/02 14:00:20;;;;;;;40.47;22.42;;;;;;;;;;5059392;28;20045;-86
2021/01/02 14:02:46;;;;;;;49.38;25.67;;;;;;;;;;5059164;28;20045;-86
2021/01/02 14:05:13;;;;;;;49.00;24.40;;;;;;;;;;5059666;28;20430;-86
2021/01/02 14:07:39;;;;;;;44.95;23.17;;;;;;;;;;5060552;28;20044;-86
2021/01/02 14:10:06;;;;;;;45.03;26.60;;;;;;;;;;5060975;28;20053;-86
2021/01/02 14:12:32;;;;;;;38.10;22.75;;;;;;;;;;5060571;28;20052;-85
2021/01/02 14:14:59;;;;;;;44.70;23.85;;;;;;;;;;5059794;28;20045;-86
2021/01/02 14:17:25;;;;;;;41.95;24.27;;;;;;;;;;5062922;28;20057;-86
2021/01/02 14:19:51;;;;;;;37.58;21.67;;;;;;;;;;5067943;28;20489;-86
2021/01/02 14:22:17;;;;;;;41.90;23.42;;;;;;;;;;5068014;28;20041;-82
2021/01/02 14:24:43;;;;;;;37.10;21.42;;;;;;;;;;5067932;28;20517;-85
2021/01/02 14:27:09;;;;;;;41.80;22.55;;;;;;;;;;5068286;28;20055;-85
2021/01/02 14:29:36;;;;;;;38.70;20.85;;;;;;;;;;5078089;28;20463;-86